Time;durP1;ratioP1;P1;durP2;ratioP2;P2;SDS_P1;SDS_P2;PMS_P1;PMS_P2;Temp;Humidity;BMP_temperature;BMP_pressure;BME280_temperature;BME280_humidity;BME280_pressure;Samples;Min_cycle;Max_cycle;Signal;HPM_P1;HPM_P2
2022/11/04 00:01:39;;;;;;;13.63;2.83;;;;;;;;;;4985711;28;20511;-60
2022/11/04 00:04:05;;;;;;;15.95;2.33;;;;;;;;;;4980849;28;20078;-60
2022/11/04 00:06:31;;;;;;;21.08;3.22;;;;;;;;;;4986153;28;20026;-60
2022/11/04 00:08:58;;;;;;;13.38;2.22;;;;;;;;;;4975573;28;20114;-61
2022/11/04 00:14:10;;;;;;;18.00;2.53;;;;;;;;;;4982686;28;20041;-60
2022/11/04 00:19:21;;;;;;;14.98;2.25;;;;;;;;;;4976074;28;20102;-60
2022/11/04 00:29:56;;;;;;;15.40;3.35;;;;;;;;;;4980090;28;20086;-60
2022/11/04 00:35:08;;;;;;;19.02;2.20;;;;;;;;;;4986869;28;20048;-61
2022/11/04 00:37:40;;;;;;;12.38;2.30;;;;;;;;;;4986605;28;20023;-60
2022/11/04 00:40:07;;;;;;;10.68;2.03;;;;;;;;;;4981571;28;20439;-61
2022/11/04 00:42:34;;;;;;;8.40;1.88;;;;;;;;;;4991441;28;20052;-60
2022/11/04 00:45:00;;;;;;;21.38;2.60;;;;;;;;;;4974762;28;20038;-61
2022/11/04 00:47:26;;;;;;;8.13;1.83;;;;;;;;;;4987652;28;20060;-60
2022/11/04 00:49:52;;;;;;;10.30;2.30;;;;;;;;;;4979348;28;20034;-60
2022/11/04 00:52:18;;;;;;;8.45;1.95;;;;;;;;;;4980631;28;20396;-61
2022/11/04 00:54:44;;;;;;;13.52;3.17;;;;;;;;;;4986403;28;20121;-60
2022/11/04 00:57:11;;;;;;;9.27;2.60;;;;;;;;;;4974999;28;20077;-61
2022/11/04 00:59:38;;;;;;;15.48;2.50;;;;;;;;;;4985930;28;20034;-60
2022/11/04 01:02:04;;;;;;;20.65;2.70;;;;;;;;;;4980532;28;20038;-60
2022/11/04 01:04:31;;;;;;;19.48;2.70;;;;;;;;;;4987607;28;20507;-60
2022/11/04 01:06:57;;;;;;;23.70;2.67;;;;;;;;;;4990808;28;20026;-60
2022/11/04 01:09:23;;;;;;;25.52;4.35;;;;;;;;;;4975097;28;20113;-60
2022/11/04 01:11:49;;;;;;;20.92;3.20;;;;;;;;;;4984625;28;20030;-60
2022/11/04 01:14:15;;;;;;;16.42;3.25;;;;;;;;;;4981218;28;20041;-61
2022/11/04 01:16:42;;;;;;;18.33;3.00;;;;;;;;;;4977802;28;20023;-60
2022/11/04 01:19:08;;;;;;;14.50;3.65;;;;;;;;;;4987383;28;20026;-61
2022/11/04 01:21:34;;;;;;;16.73;3.50;;;;;;;;;;4983924;28;20106;-60
2022/11/04 01:24:00;;;;;;;23.13;3.40;;;;;;;;;;4983300;28;20188;-61
2022/11/04 01:26:27;;;;;;;20.75;3.55;;;;;;;;;;4982891;28;20026;-60
2022/11/04 01:28:54;;;;;;;26.08;3.85;;;;;;;;;;4979578;28;20083;-60
2022/11/04 01:31:22;;;;;;;33.47;6.53;;;;;;;;;;4974490;28;20545;-60
2022/11/04 01:33:49;;;;;;;20.67;4.47;;;;;;;;;;4988667;28;20037;-61
2022/11/04 01:36:15;;;;;;;35.65;5.78;;;;;;;;;;4990366;28;20041;-61
2022/11/04 01:38:41;;;;;;;29.63;4.57;;;;;;;;;;4977755;28;20396;-60
2022/11/04 01:41:08;;;;;;;31.75;4.57;;;;;;;;;;4987112;28;20035;-61
2022/11/04 01:43:44;;;;;;;23.35;3.85;;;;;;;;;;4986582;28;20121;-61
2022/11/04 01:46:32;;;;;;;20.02;3.53;;;;;;;;;;4980093;28;20030;-60
2022/11/04 01:49:03;;;;;;;23.20;3.97;;;;;;;;;;4980594;28;20487;-60
2022/11/04 01:51:32;;;;;;;31.58;5.13;;;;;;;;;;4974459;28;20034;-61
2022/11/04 01:53:58;;;;;;;18.58;3.25;;;;;;;;;;4983541;28;20081;-61
2022/11/04 01:56:26;;;;;;;24.23;3.80;;;;;;;;;;4980726;28;20083;-61
2022/11/04 01:58:54;;;;;;;20.42;3.90;;;;;;;;;;4976245;28;20114;-61
2022/11/04 02:01:20;;;;;;;32.55;5.10;;;;;;;;;;4986683;28;20041;-61
2022/11/04 02:03:48;;;;;;;32.92;4.65;;;;;;;;;;4975957;28;20570;-60
2022/11/04 02:06:15;;;;;;;31.52;4.90;;;;;;;;;;4981294;28;20027;-61
2022/11/04 02:08:41;;;;;;;29.25;6.25;;;;;;;;;;4982447;28;20034;-60
2022/11/04 02:11:07;;;;;;;41.90;5.13;;;;;;;;;;4974232;28;20073;-61
2022/11/04 02:13:35;;;;;;;40.90;5.32;;;;;;;;;;4986412;28;20357;-61
2022/11/04 02:16:17;;;;;;;38.28;7.40;;;;;;;;;;4977455;28;20015;-60
2022/11/04 02:19:04;;;;;;;35.40;6.03;;;;;;;;;;4977849;28;20031;-61
2022/11/04 02:21:40;;;;;;;31.02;5.85;;;;;;;;;;4986552;28;20042;-60
2022/11/04 02:24:24;;;;;;;36.30;5.78;;;;;;;;;;4978278;28;20038;-61
2022/11/04 02:26:56;;;;;;;45.63;9.48;;;;;;;;;;4984008;28;20087;-61
2022/11/04 02:29:32;;;;;;;41.05;7.82;;;;;;;;;;4973798;28;20027;-60
2022/11/04 02:32:04;;;;;;;40.22;6.35;;;;;;;;;;4989307;28;20029;-60
2022/11/04 02:34:39;;;;;;;28.92;5.15;;;;;;;;;;4988857;28;20425;-61
2022/11/04 02:37:15;;;;;;;27.65;4.65;;;;;;;;;;4989869;28;20030;-61
2022/11/04 02:39:46;;;;;;;50.65;6.43;;;;;;;;;;4974395;28;20065;-61
2022/11/04 02:42:16;;;;;;;34.55;7.22;;;;;;;;;;4985616;28;20539;-61
2022/11/04 02:44:51;;;;;;;39.90;6.53;;;;;;;;;;4989748;28;20034;-61
2022/11/04 02:47:21;;;;;;;47.63;7.10;;;;;;;;;;4973655;28;20047;-61
2022/11/04 02:49:51;;;;;;;46.65;6.00;;;;;;;;;;4985644;28;20121;-61
2022/11/04 02:52:25;;;;;;;30.00;5.80;;;;;;;;;;4978660;28;20033;-61
2022/11/04 02:54:53;;;;;;;33.10;5.55;;;;;;;;;;4976510;28;20035;-60
2022/11/04 02:57:25;;;;;;;24.98;5.20;;;;;;;;;;4985980;28;20018;-61
2022/11/04 02:59:57;;;;;;;27.30;4.70;;;;;;;;;;4975326;28;20402;-60
2022/11/04 03:02:26;;;;;;;23.52;4.28;;;;;;;;;;4987252;28;20508;-60
2022/11/04 03:04:53;;;;;;;31.35;4.93;;;;;;;;;;4989580;28;20109;-60
2022/11/04 03:07:22;;;;;;;27.98;5.60;;;;;;;;;;4973836;28;20037;-61
2022/11/04 03:09:50;;;;;;;21.15;3.95;;;;;;;;;;4988568;28;20125;-61
2022/11/04 03:12:19;;;;;;;16.95;3.05;;;;;;;;;;4981636;28;20034;-61
2022/11/04 03:14:48;;;;;;;20.15;3.03;;;;;;;;;;4981277;28;20172;-60
2022/11/04 03:17:18;;;;;;;14.85;3.35;;;;;;;;;;4989229;28;20109;-60
2022/11/04 03:19:49;;;;;;;12.85;2.30;;;;;;;;;;4976977;28;20034;-60
2022/11/04 03:22:20;;;;;;;18.70;2.25;;;;;;;;;;4985289;28;20137;-60
2022/11/04 03:24:47;;;;;;;16.42;2.72;;;;;;;;;;4985089;28;20407;-60
2022/11/04 03:27:32;;;;;;;18.13;2.80;;;;;;;;;;4977586;28;20049;-60
2022/11/04 03:30:07;;;;;;;16.05;2.47;;;;;;;;;;4977627;28;20019;-60
2022/11/04 03:32:44;;;;;;;17.60;2.90;;;;;;;;;;4982938;28;20034;-60
2022/11/04 03:35:11;;;;;;;17.48;2.70;;;;;;;;;;4978814;28;20124;-60
2022/11/04 03:37:37;;;;;;;13.15;2.70;;;;;;;;;;4982930;28;20063;-60
2022/11/04 03:40:04;;;;;;;10.60;2.08;;;;;;;;;;4983957;28;20022;-60
2022/11/04 03:42:31;;;;;;;10.20;2.15;;;;;;;;;;4980189;28;20023;-61
2022/11/04 03:44:57;;;;;;;11.52;2.20;;;;;;;;;;4984285;28;20394;-61
2022/11/04 03:47:25;;;;;;;12.98;2.42;;;;;;;;;;4983876;28;20131;-60
2022/11/04 03:49:53;;;;;;;15.98;2.50;;;;;;;;;;4980774;28;20605;-60
2022/11/04 03:52:19;;;;;;;11.52;2.53;;;;;;;;;;4981006;28;20062;-61
2022/11/04 03:54:46;;;;;;;14.13;3.03;;;;;;;;;;4983171;28;20034;-61
2022/11/04 03:57:35;;;;;;;11.05;2.00;;;;;;;;;;4984241;28;20054;-60
2022/11/04 04:00:09;;;;;;;10.82;1.77;;;;;;;;;;4978023;28;20037;-60
2022/11/04 04:02:42;;;;;;;12.77;2.80;;;;;;;;;;4982593;28;20054;-61
2022/11/04 04:05:08;;;;;;;8.73;1.70;;;;;;;;;;4988346;28;20039;-60
2022/11/04 04:07:38;;;;;;;9.00;1.58;;;;;;;;;;4975832;28;20034;-61
2022/11/04 04:10:37;;;;;;;14.38;1.90;;;;;;;;;;4986978;28;20085;-60
2022/11/04 04:12:58;;;;;;;5.97;1.17;;;;;;;;;;4984728;28;20038;-61
2022/11/04 04:15:28;;;;;;;12.57;1.67;;;;;;;;;;4976260;28;20119;-61
2022/11/04 04:17:58;;;;;;;13.15;2.10;;;;;;;;;;4976490;28;20686;-60
2022/11/04 04:20:26;;;;;;;13.68;2.30;;;;;;;;;;4983946;28;20034;-60
2022/11/04 04:22:57;;;;;;;6.78;1.70;;;;;;;;;;4983464;28;20139;-61
2022/11/04 04:28:12;;;;;;;10.65;1.90;;;;;;;;;;4978146;28;20487;-61
2022/11/04 04:30:39;;;;;;;6.78;1.40;;;;;;;;;;4982444;28;20034;-61
2022/11/04 04:33:11;;;;;;;10.10;1.95;;;;;;;;;;4991190;28;20037;-61
2022/11/04 04:35:41;;;;;;;17.70;3.05;;;;;;;;;;4975248;28;20030;-61
2022/11/04 04:46:27;;;;;;;11.40;2.38;;;;;;;;;;4984275;28;20092;-61
2022/11/04 04:48:54;;;;;;;13.20;2.13;;;;;;;;;;4982430;28;20034;-60
2022/11/04 04:51:20;;;;;;;13.10;2.15;;;;;;;;;;4976833;28;20035;-61
2022/11/04 04:53:46;;;;;;;9.60;1.95;;;;;;;;;;4987725;28;20034;-61
2022/11/04 04:56:12;;;;;;;8.13;2.08;;;;;;;;;;4977371;28;20014;-60
2022/11/04 04:58:38;;;;;;;20.30;2.90;;;;;;;;;;4982541;28;20031;-61
2022/11/04 05:01:04;;;;;;;17.65;2.72;;;;;;;;;;4978054;28;20027;-61
2022/11/04 05:03:30;;;;;;;9.10;2.05;;;;;;;;;;4986175;28;20046;-60
2022/11/04 05:05:58;;;;;;;9.02;2.13;;;;;;;;;;4984243;28;20075;-60
2022/11/04 05:08:24;;;;;;;12.85;2.25;;;;;;;;;;4984594;28;20053;-60
2022/11/04 05:10:50;;;;;;;16.27;1.90;;;;;;;;;;4981635;28;20038;-61
2022/11/04 05:13:27;;;;;;;16.20;4.00;;;;;;;;;;4977616;28;20058;-60
2022/11/04 05:15:53;;;;;;;6.47;1.23;;;;;;;;;;4986388;28;20092;-60
2022/11/04 05:18:19;;;;;;;16.60;2.90;;;;;;;;;;4976521;28;20049;-60
2022/11/04 05:20:45;;;;;;;20.60;2.17;;;;;;;;;;4985930;28;20480;-61
2022/11/04 05:23:12;;;;;;;11.65;2.40;;;;;;;;;;4986875;28;20475;-60
2022/11/04 05:25:39;;;;;;;10.13;1.92;;;;;;;;;;4990413;28;20035;-61
2022/11/04 05:28:06;;;;;;;10.27;2.10;;;;;;;;;;4975171;28;20026;-60
2022/11/04 05:30:32;;;;;;;14.85;2.00;;;;;;;;;;4982772;28;20034;-60
2022/11/04 05:32:58;;;;;;;9.25;1.88;;;;;;;;;;4981442;28;20462;-60
2022/11/04 05:35:24;;;;;;;9.27;2.45;;;;;;;;;;4988970;28;20171;-60
2022/11/04 05:37:50;;;;;;;7.95;1.60;;;;;;;;;;4974286;28;20152;-60
2022/11/04 05:40:17;;;;;;;10.77;1.80;;;;;;;;;;4989120;28;20157;-60
2022/11/04 05:42:43;;;;;;;11.70;1.90;;;;;;;;;;4981839;28;20030;-61
2022/11/04 05:45:09;;;;;;;17.40;2.63;;;;;;;;;;4982922;28;20372;-61
2022/11/04 05:47:35;;;;;;;11.35;2.03;;;;;;;;;;4982602;28;20030;-61
2022/11/04 05:50:01;;;;;;;11.60;2.10;;;;;;;;;;4987156;28;20041;-61
2022/11/04 05:52:27;;;;;;;11.77;1.48;;;;;;;;;;4985144;28;20126;-60
2022/11/04 05:54:53;;;;;;;10.23;2.05;;;;;;;;;;4971068;28;20078;-61
2022/11/04 05:57:20;;;;;;;9.15;1.90;;;;;;;;;;4983751;28;20030;-60
2022/11/04 05:59:46;;;;;;;9.27;1.75;;;;;;;;;;4984531;28;20113;-61
2022/11/04 06:02:12;;;;;;;11.82;1.90;;;;;;;;;;4986394;28;20131;-61
2022/11/04 06:04:38;;;;;;;16.33;2.22;;;;;;;;;;4988727;28;20038;-60
2022/11/04 06:07:04;;;;;;;8.57;1.27;;;;;;;;;;4979386;28;20545;-60
2022/11/04 06:09:39;;;;;;;7.35;1.70;;;;;;;;;;4985232;28;20088;-60
2022/11/04 06:12:09;;;;;;;9.32;1.58;;;;;;;;;;4988777;28;20030;-60
2022/11/04 06:14:36;;;;;;;17.00;2.58;;;;;;;;;;4989661;28;20038;-61
2022/11/04 06:17:02;;;;;;;15.57;2.20;;;;;;;;;;4979768;28;20019;-60
2022/11/04 06:19:29;;;;;;;10.90;1.55;;;;;;;;;;4984410;28;20030;-61
2022/11/04 06:21:55;;;;;;;9.63;2.08;;;;;;;;;;4982761;28;20027;-61
2022/11/04 06:24:21;;;;;;;14.18;2.45;;;;;;;;;;4989752;28;20087;-60
2022/11/04 06:26:47;;;;;;;13.88;2.85;;;;;;;;;;4989968;28;20410;-60
2022/11/04 06:29:13;;;;;;;11.25;2.67;;;;;;;;;;4990926;28;20168;-61
2022/11/04 06:31:39;;;;;;;13.85;2.95;;;;;;;;;;5051795;28;20037;-61
2022/11/04 06:34:05;;;;;;;12.35;1.92;;;;;;;;;;4974289;28;20034;-61
2022/11/04 06:36:31;;;;;;;14.27;2.83;;;;;;;;;;4973597;28;20047;-62
2022/11/04 06:38:58;;;;;;;10.13;2.55;;;;;;;;;;4983576;28;20022;-61
2022/11/04 06:41:24;;;;;;;11.20;2.55;;;;;;;;;;4982734;28;20031;-61
2022/11/04 06:43:50;;;;;;;13.15;1.98;;;;;;;;;;4987027;28;20038;-61
2022/11/04 06:46:31;;;;;;;9.90;2.55;;;;;;;;;;5001174;28;20038;-61
2022/11/04 06:48:57;;;;;;;7.82;1.95;;;;;;;;;;4988899;28;20065;-61
2022/11/04 06:51:24;;;;;;;14.63;2.20;;;;;;;;;;4990579;28;20041;-61
2022/11/04 06:53:50;;;;;;;9.85;1.80;;;;;;;;;;4974491;28;20084;-61
2022/11/04 06:56:16;;;;;;;13.40;2.20;;;;;;;;;;4976094;28;20503;-63
2022/11/04 06:58:43;;;;;;;14.93;2.30;;;;;;;;;;4991024;28;20030;-60
2022/11/04 07:01:09;;;;;;;9.85;2.22;;;;;;;;;;4990399;28;20049;-61
2022/11/04 07:03:35;;;;;;;11.02;2.40;;;;;;;;;;4989321;28;20046;-61
2022/11/04 07:06:08;;;;;;;12.27;2.53;;;;;;;;;;4978693;28;20031;-61
2022/11/04 07:08:34;;;;;;;;;;;;;;;;;;4974114;28;20031;-61
2022/11/04 07:11:00;;;;;;;11.23;2.28;;;;;;;;;;4973783;28;19906;-62
2022/11/04 07:13:27;;;;;;;5.85;2.00;;;;;;;;;;4981444;28;20543;-61
2022/11/04 07:15:53;;;;;;;10.50;2.63;;;;;;;;;;4980692;28;20074;-60
2022/11/04 07:18:19;;;;;;;12.45;2.53;;;;;;;;;;4987222;28;20092;-60
2022/11/04 07:20:45;;;;;;;11.27;2.50;;;;;;;;;;4983911;28;20022;-60
2022/11/04 07:23:11;;;;;;;16.73;2.65;;;;;;;;;;4987781;28;20111;-60
2022/11/04 07:25:37;;;;;;;10.02;2.25;;;;;;;;;;4991459;28;20026;-61
2022/11/04 07:28:04;;;;;;;9.77;2.10;;;;;;;;;;4975437;28;20084;-61
2022/11/04 07:30:30;;;;;;;15.10;2.28;;;;;;;;;;4982656;28;20026;-61
2022/11/04 07:32:57;;;;;;;14.25;2.30;;;;;;;;;;4986730;28;20026;-60
2022/11/04 07:35:23;;;;;;;11.43;2.33;;;;;;;;;;4977994;28;20042;-60
2022/11/04 07:37:49;;;;;;;24.42;2.50;;;;;;;;;;4984693;28;20122;-61
2022/11/04 07:40:16;;;;;;;20.55;2.72;;;;;;;;;;4989310;28;20065;-61
2022/11/04 07:42:42;;;;;;;20.00;2.83;;;;;;;;;;4985445;28;20082;-61
2022/11/04 07:45:15;;;;;;;21.67;3.53;;;;;;;;;;4970650;28;20035;-61
2022/11/04 07:47:41;;;;;;;20.90;2.63;;;;;;;;;;4989897;28;20052;-61
2022/11/04 07:50:07;;;;;;;17.50;2.33;;;;;;;;;;4990755;28;20026;-61
2022/11/04 07:52:33;;;;;;;16.95;2.45;;;;;;;;;;4987743;28;20494;-60
2022/11/04 07:54:59;;;;;;;10.45;2.58;;;;;;;;;;4983583;28;20215;-60
2022/11/04 07:57:26;;;;;;;14.30;2.30;;;;;;;;;;4985662;28;20045;-61
2022/11/04 07:59:52;;;;;;;13.40;2.22;;;;;;;;;;4982784;28;20515;-60
2022/11/04 08:02:18;;;;;;;14.63;2.60;;;;;;;;;;4981997;28;20033;-61
2022/11/04 08:04:44;;;;;;;13.07;2.35;;;;;;;;;;4984768;28;20030;-61
2022/11/04 08:07:10;;;;;;;12.68;2.00;;;;;;;;;;4982943;28;20035;-61
2022/11/04 08:09:36;;;;;;;19.25;2.50;;;;;;;;;;4986408;28;20033;-61
2022/11/04 08:12:04;;;;;;;12.55;2.38;;;;;;;;;;4980945;28;20022;-61
2022/11/04 08:14:30;;;;;;;16.55;2.58;;;;;;;;;;4984889;28;20065;-61
2022/11/04 08:16:56;;;;;;;13.27;2.10;;;;;;;;;;4985635;28;20045;-60
2022/11/04 08:19:23;;;;;;;8.75;2.15;;;;;;;;;;4980887;28;20019;-60
2022/11/04 08:21:49;;;;;;;15.75;2.15;;;;;;;;;;4979574;28;20022;-60
2022/11/04 08:24:15;;;;;;;14.05;3.03;;;;;;;;;;4983982;28;20041;-61
2022/11/04 08:26:41;;;;;;;11.18;2.35;;;;;;;;;;4983386;28;20278;-61
2022/11/04 08:29:08;;;;;;;11.50;2.08;;;;;;;;;;4982815;28;20034;-61
2022/11/04 08:31:34;;;;;;;15.20;2.35;;;;;;;;;;4983188;28;20026;-61
2022/11/04 08:34:00;;;;;;;13.05;2.33;;;;;;;;;;4982965;28;20122;-61
2022/11/04 08:36:26;;;;;;;14.13;2.45;;;;;;;;;;4987417;28;20043;-61
2022/11/04 08:38:53;;;;;;;13.88;2.63;;;;;;;;;;4990475;28;20023;-60
2022/11/04 08:41:21;;;;;;;9.93;1.80;;;;;;;;;;4990922;28;20019;-61
2022/11/04 08:43:47;;;;;;;10.90;1.92;;;;;;;;;;5004126;28;20035;-60
2022/11/04 08:46:14;;;;;;;9.55;1.58;;;;;;;;;;4979417;28;20115;-60
2022/11/04 08:48:40;;;;;;;11.63;2.03;;;;;;;;;;4986267;28;20038;-60
2022/11/04 08:51:11;;;;;;;9.73;1.80;;;;;;;;;;4983142;28;20037;-60
2022/11/04 08:53:37;;;;;;;15.73;1.85;;;;;;;;;;4977227;28;20127;-60
2022/11/04 08:56:12;;;;;;;10.43;2.03;;;;;;;;;;4987189;28;20022;-60
2022/11/04 08:58:38;;;;;;;14.07;2.38;;;;;;;;;;4981772;28;20109;-61
2022/11/04 09:01:05;;;;;;;16.02;2.90;;;;;;;;;;4986977;28;20026;-61
2022/11/04 09:03:33;;;;;;;8.85;1.77;;;;;;;;;;4974102;28;20099;-61
2022/11/04 09:05:59;;;;;;;14.82;2.03;;;;;;;;;;4984065;28;20042;-61
2022/11/04 09:08:26;;;;;;;12.43;2.05;;;;;;;;;;4987276;28;20115;-63
2022/11/04 09:10:52;;;;;;;14.00;2.08;;;;;;;;;;4989861;28;20026;-60
2022/11/04 09:13:18;;;;;;;12.75;2.70;;;;;;;;;;4981207;28;20054;-61
2022/11/04 09:15:44;;;;;;;15.77;1.90;;;;;;;;;;4983920;28;20475;-60
2022/11/04 09:18:10;;;;;;;7.93;1.92;;;;;;;;;;4987374;28;20079;-60
2022/11/04 09:20:41;;;;;;;15.02;1.42;;;;;;;;;;4985356;28;20513;-64
2022/11/04 09:23:07;;;;;;;10.25;1.63;;;;;;;;;;4985709;28;20132;-61
2022/11/04 09:25:34;;;;;;;10.20;2.40;;;;;;;;;;4985713;28;20034;-61
2022/11/04 09:28:00;;;;;;;8.40;1.88;;;;;;;;;;4982349;28;20033;-61
2022/11/04 09:30:27;;;;;;;7.40;2.47;;;;;;;;;;4985161;28;20034;-61
2022/11/04 09:32:53;;;;;;;11.95;2.30;;;;;;;;;;5005083;28;20519;-61
2022/11/04 09:35:19;;;;;;;15.80;2.38;;;;;;;;;;4982507;28;20032;-61
2022/11/04 09:37:45;;;;;;;13.13;2.00;;;;;;;;;;4979980;28;20105;-61
2022/11/04 09:40:14;;;;;;;11.10;2.38;;;;;;;;;;4974839;28;20034;-61
2022/11/04 09:42:40;;;;;;;15.38;2.20;;;;;;;;;;4992341;28;20102;-61
2022/11/04 09:45:11;;;;;;;9.82;2.10;;;;;;;;;;4981156;28;20080;-61
2022/11/04 09:47:39;;;;;;;17.23;4.25;;;;;;;;;;4988831;28;20476;-61
2022/11/04 09:50:07;;;;;;;10.07;1.73;;;;;;;;;;4982171;28;20034;-61
2022/11/04 09:52:36;;;;;;;15.75;2.13;;;;;;;;;;4987856;28;20115;-61
2022/11/04 09:55:11;;;;;;;10.82;1.80;;;;;;;;;;4983543;28;20415;-61
2022/11/04 09:57:37;;;;;;;11.90;2.20;;;;;;;;;;4988071;28;20026;-61
2022/11/04 10:00:05;;;;;;;8.48;2.47;;;;;;;;;;4987205;28;20027;-61
2022/11/04 10:02:44;;;;;;;12.20;1.90;;;;;;;;;;4980552;28;20091;-61
2022/11/04 10:05:13;;;;;;;9.13;1.92;;;;;;;;;;4987957;28;20483;-62
2022/11/04 10:07:39;;;;;;;12.13;2.15;;;;;;;;;;4988626;28;20066;-61
2022/11/04 10:10:18;;;;;;;9.52;2.00;;;;;;;;;;4986680;28;20069;-61
2022/11/04 10:12:45;;;;;;;14.95;2.38;;;;;;;;;;4980047;28;20112;-61
2022/11/04 10:15:14;;;;;;;14.77;3.22;;;;;;;;;;4982049;28;20050;-61
2022/11/04 10:17:43;;;;;;;8.40;2.15;;;;;;;;;;4979794;28;20026;-61
2022/11/04 10:20:33;;;;;;;13.50;2.40;;;;;;;;;;4972048;28;20031;-61
2022/11/04 10:23:18;;;;;;;10.13;2.03;;;;;;;;;;4973520;28;20023;-61
2022/11/04 10:26:00;;;;;;;10.68;2.03;;;;;;;;;;4975706;28;20041;-61
2022/11/04 10:28:35;;;;;;;6.60;1.70;;;;;;;;;;4973440;28;20122;-61
2022/11/04 10:31:02;;;;;;;6.78;1.42;;;;;;;;;;4978576;28;20486;-61
2022/11/04 10:33:32;;;;;;;9.38;1.73;;;;;;;;;;4979559;28;20038;-61
2022/11/04 10:36:02;;;;;;;11.05;1.50;;;;;;;;;;4976282;28;20034;-61
2022/11/04 10:38:31;;;;;;;15.27;1.88;;;;;;;;;;4971927;28;20434;-62
2022/11/04 10:40:57;;;;;;;8.48;1.50;;;;;;;;;;4982655;28;20087;-61
2022/11/04 10:43:28;;;;;;;5.43;2.10;;;;;;;;;;4985106;28;20037;-61
2022/11/04 10:46:09;;;;;;;3.78;1.25;;;;;;;;;;4984181;28;20026;-61
2022/11/04 10:48:39;;;;;;;5.82;2.17;;;;;;;;;;4979174;28;20023;-62
2022/11/04 10:51:05;;;;;;;8.65;1.55;;;;;;;;;;4983902;28;20468;-61
2022/11/04 10:53:33;;;;;;;13.25;1.52;;;;;;;;;;4983611;28;20106;-61
2022/11/04 10:56:04;;;;;;;12.75;1.60;;;;;;;;;;4983017;28;20476;-61
2022/11/04 10:58:32;;;;;;;8.98;1.40;;;;;;;;;;4981302;28;20026;-61
2022/11/04 11:00:59;;;;;;;11.32;1.85;;;;;;;;;;4984379;28;20371;-61
2022/11/04 11:03:25;;;;;;;3.38;1.23;;;;;;;;;;4980598;28;20148;-61
2022/11/04 11:05:52;;;;;;;13.82;2.90;;;;;;;;;;4982408;28;20106;-61
2022/11/04 11:08:29;;;;;;;8.82;1.88;;;;;;;;;;4980862;28;20394;-61
2022/11/04 11:10:55;;;;;;;8.50;1.90;;;;;;;;;;4982956;28;20036;-61
2022/11/04 11:13:26;;;;;;;11.07;2.00;;;;;;;;;;4988361;28;20034;-61
2022/11/04 11:16:12;;;;;;;6.93;1.70;;;;;;;;;;4984212;28;20034;-61
2022/11/04 11:18:40;;;;;;;11.82;2.13;;;;;;;;;;4980107;28;20051;-62
2022/11/04 11:21:15;;;;;;;6.95;2.20;;;;;;;;;;4981021;28;20053;-61
2022/11/04 11:23:41;;;;;;;15.93;3.08;;;;;;;;;;4980121;28;20034;-62
2022/11/04 11:26:09;;;;;;;8.43;2.20;;;;;;;;;;4978666;28;20430;-61
2022/11/04 11:28:39;;;;;;;15.82;3.00;;;;;;;;;;4989786;28;20051;-61
2022/11/04 11:31:13;;;;;;;11.25;1.92;;;;;;;;;;4994770;28;20492;-61
2022/11/04 11:33:47;;;;;;;9.23;2.65;;;;;;;;;;4986261;28;20101;-61
2022/11/04 11:36:23;;;;;;;14.05;4.15;;;;;;;;;;4993829;28;20167;-61
2022/11/04 11:39:02;;;;;;;23.08;5.50;;;;;;;;;;4981668;28;20037;-61
2022/11/04 11:41:32;;;;;;;58.05;27.58;;;;;;;;;;4982396;28;20086;-61
2022/11/04 11:44:06;;;;;;;16.48;4.07;;;;;;;;;;4982151;28;20034;-62
2022/11/04 11:46:33;;;;;;;18.58;3.70;;;;;;;;;;4982628;28;20122;-61
2022/11/04 11:49:04;;;;;;;14.80;3.95;;;;;;;;;;4981158;28;20109;-61
2022/11/04 11:51:32;;;;;;;17.45;3.90;;;;;;;;;;4981892;28;20030;-61
2022/11/04 11:54:04;;;;;;;17.02;3.80;;;;;;;;;;4981879;28;20034;-61
2022/11/04 11:56:33;;;;;;;23.85;3.08;;;;;;;;;;4984305;28;20119;-61
2022/11/04 11:59:06;;;;;;;25.05;3.25;;;;;;;;;;4975508;28;20530;-61
2022/11/04 12:01:32;;;;;;;;;;;;;;;;;;4981805;28;20034;-61
2022/11/04 12:03:59;;;;;;;12.75;3.92;;;;;;;;;;4979447;28;19926;-62
2022/11/04 12:06:37;;;;;;;37.58;6.13;;;;;;;;;;4982892;28;20047;-61
2022/11/04 12:09:07;;;;;;;18.92;5.15;;;;;;;;;;4978734;28;20471;-61
2022/11/04 12:11:33;;;;;;;29.70;5.28;;;;;;;;;;4989052;28;20037;-61
2022/11/04 12:14:01;;;;;;;16.95;3.40;;;;;;;;;;4983899;28;20034;-61
2022/11/04 12:16:39;;;;;;;22.90;5.68;;;;;;;;;;4984759;28;20023;-61
2022/11/04 12:19:06;;;;;;;21.30;3.42;;;;;;;;;;4978180;28;20026;-68
2022/11/04 12:21:32;;;;;;;19.88;3.30;;;;;;;;;;4977176;28;20038;-61
2022/11/04 12:24:14;;;;;;;18.10;4.47;;;;;;;;;;4981277;28;20039;-61
2022/11/04 12:27:01;;;;;;;23.75;3.13;;;;;;;;;;4987314;28;20042;-61
2022/11/04 12:29:32;;;;;;;20.05;4.13;;;;;;;;;;4984196;28;20077;-62
2022/11/04 12:32:17;;;;;;;23.83;3.97;;;;;;;;;;4988665;28;20471;-61
2022/11/04 12:34:46;;;;;;;13.88;2.72;;;;;;;;;;4975086;28;20023;-62
2022/11/04 12:37:21;;;;;;;23.15;4.00;;;;;;;;;;4983513;28;20486;-61
2022/11/04 12:40:00;;;;;;;21.83;4.65;;;;;;;;;;4985024;28;20483;-61
2022/11/04 12:42:45;;;;;;;18.95;3.47;;;;;;;;;;4982346;28;20022;-61
2022/11/04 12:45:24;;;;;;;16.88;3.45;;;;;;;;;;4987353;28;20518;-61
2022/11/04 12:47:50;;;;;;;20.83;3.90;;;;;;;;;;4985701;28;20027;-61
2022/11/04 12:50:35;;;;;;;17.52;3.22;;;;;;;;;;4983598;28;20037;-61
2022/11/04 12:53:01;;;;;;;18.30;3.75;;;;;;;;;;4985912;28;20034;-61
2022/11/04 12:55:42;;;;;;;16.13;3.85;;;;;;;;;;4986826;28;20030;-61
2022/11/04 12:58:12;;;;;;;16.20;3.33;;;;;;;;;;4981317;28;20080;-61
2022/11/04 13:00:41;;;;;;;19.33;6.35;;;;;;;;;;4981043;28;20018;-61
2022/11/04 13:03:20;;;;;;;23.15;6.57;;;;;;;;;;4974490;28;20047;-62
2022/11/04 13:06:01;;;;;;;19.88;5.22;;;;;;;;;;4977799;28;20041;-62
2022/11/04 13:08:31;;;;;;;21.60;3.88;;;;;;;;;;4962392;28;20647;-61
2022/11/04 13:11:21;;;;;;;26.20;4.47;;;;;;;;;;4980336;28;20034;-61
2022/11/04 13:13:49;;;;;;;18.13;4.53;;;;;;;;;;4998896;28;20035;-61
2022/11/04 13:16:15;;;;;;;15.27;3.35;;;;;;;;;;4980688;28;20069;-61
2022/11/04 13:18:42;;;;;;;17.58;3.42;;;;;;;;;;4980035;28;20034;-61
2022/11/04 13:21:12;;;;;;;18.73;3.47;;;;;;;;;;4985105;28;20060;-61
2022/11/04 13:23:41;;;;;;;15.07;3.53;;;;;;;;;;4976075;28;20105;-61
2022/11/04 13:26:13;;;;;;;17.77;2.47;;;;;;;;;;4982344;28;20088;-61
2022/11/04 13:28:40;;;;;;;16.87;2.97;;;;;;;;;;4979668;28;20060;-61
2022/11/04 13:31:15;;;;;;;18.80;4.97;;;;;;;;;;4974993;28;20112;-61
2022/11/04 13:33:42;;;;;;;18.65;3.33;;;;;;;;;;4972294;28;20046;-61
2022/11/04 13:36:26;;;;;;;16.63;2.80;;;;;;;;;;4988374;28;20012;-61
2022/11/04 13:38:54;;;;;;;14.85;2.85;;;;;;;;;;4976252;28;20030;-61
2022/11/04 13:41:23;;;;;;;11.00;3.50;;;;;;;;;;4974864;28;20034;-61
2022/11/04 13:43:55;;;;;;;13.32;2.90;;;;;;;;;;4974441;28;20378;-62
2022/11/04 13:46:22;;;;;;;12.15;2.90;;;;;;;;;;4971691;28;20084;-62
2022/11/04 13:48:54;;;;;;;17.92;3.25;;;;;;;;;;4974708;28;20018;-62
2022/11/04 13:51:20;;;;;;;13.60;2.30;;;;;;;;;;4978061;28;20031;-62
2022/11/04 13:53:55;;;;;;;6.03;1.50;;;;;;;;;;4970311;28;20018;-62
2022/11/04 13:56:29;;;;;;;18.55;4.57;;;;;;;;;;4973003;28;20027;-62
2022/11/04 13:58:58;;;;;;;12.57;2.53;;;;;;;;;;4974125;28;20137;-62
2022/11/04 14:01:24;;;;;;;17.85;2.70;;;;;;;;;;4976250;28;20010;-62
2022/11/04 14:03:54;;;;;;;10.35;2.13;;;;;;;;;;4968583;28;20127;-62
2022/11/04 14:06:39;;;;;;;16.40;1.83;;;;;;;;;;4971828;28;20114;-62
2022/11/04 14:09:24;;;;;;;12.63;1.92;;;;;;;;;;4974629;28;20059;-62
2022/11/04 14:12:08;;;;;;;14.00;2.83;;;;;;;;;;4971911;28;20031;-62
2022/11/04 14:14:35;;;;;;;14.45;3.47;;;;;;;;;;4978533;28;20030;-62
2022/11/04 14:17:06;;;;;;;13.05;2.70;;;;;;;;;;4973756;28;20520;-62
2022/11/04 14:19:56;;;;;;;12.43;2.40;;;;;;;;;;4971728;28;20029;-62
2022/11/04 14:22:26;;;;;;;11.73;2.28;;;;;;;;;;4974430;28;20419;-62
2022/11/04 14:25:00;;;;;;;18.73;4.00;;;;;;;;;;4991334;28;20057;-62
2022/11/04 14:27:30;;;;;;;11.02;2.00;;;;;;;;;;4979888;28;20489;-62
2022/11/04 14:29:56;;;;;;;19.77;2.45;;;;;;;;;;4974424;28;20035;-61
2022/11/04 14:32:25;;;;;;;9.10;3.35;;;;;;;;;;4984073;28;20041;-62
2022/11/04 14:34:59;;;;;;;9.80;2.33;;;;;;;;;;4981611;28;20489;-62
2022/11/04 14:37:27;;;;;;;13.80;2.45;;;;;;;;;;4981479;28;20026;-62
2022/11/04 14:39:58;;;;;;;19.33;2.50;;;;;;;;;;4983099;28;20019;-62
2022/11/04 14:42:43;;;;;;;12.13;2.00;;;;;;;;;;4981890;28;20430;-62
2022/11/04 14:45:14;;;;;;;24.90;3.75;;;;;;;;;;4984065;28;20030;-62
2022/11/04 14:47:42;;;;;;;14.80;2.28;;;;;;;;;;4979212;28;20039;-62
2022/11/04 14:50:16;;;;;;;12.57;2.30;;;;;;;;;;4976161;28;20034;-62
2022/11/04 14:52:48;;;;;;;15.35;3.15;;;;;;;;;;4974617;28;20028;-62
2022/11/04 14:55:15;;;;;;;13.20;4.25;;;;;;;;;;4979112;28;20085;-62
2022/11/04 14:57:43;;;;;;;9.63;1.92;;;;;;;;;;4979131;28;20022;-62
2022/11/04 15:00:29;;;;;;;13.82;2.38;;;;;;;;;;4983263;28;20031;-62
2022/11/04 15:03:16;;;;;;;21.98;2.85;;;;;;;;;;4980834;28;20141;-62
2022/11/04 15:05:50;;;;;;;14.65;2.67;;;;;;;;;;4979745;28;20038;-62
2022/11/04 15:08:30;;;;;;;13.73;2.85;;;;;;;;;;4978371;28;20030;-62
2022/11/04 15:10:58;;;;;;;16.23;2.78;;;;;;;;;;4979327;28;20030;-62
2022/11/04 15:13:24;;;;;;;19.40;2.47;;;;;;;;;;4972326;28;20019;-61
2022/11/04 15:15:52;;;;;;;13.35;2.88;;;;;;;;;;4975949;28;20403;-62